Weather at Rabin Medical Center (Beilinson)

Public forecast

Using degrees Celsius for public forecast. Weather courtesy of forecast.io.

Closest aviation weather report (METAR) to Rabin Medical Center (Beilinson)

Report is more than 6 hours old.

Closest report is Sde Dov Airport, 4.5 nm (8.4 km) WNW. Retrieved 2019/06/30 20:50 UTC (2 years ago):

LLSD 302050Z VRB03KT 9999 SCT017 27/23 Q1007

Closest aviation forecast (TAF) to Rabin Medical Center (Beilinson)

Forecast is more than 12 hours old.

Closest forecast is Sde Dov Airport, 4.5 nm (8.4 km) WNW. Retrieved 2019/06/30 18:09 UTC (2 years ago):

TAF LLSD 301705Z 3018/0118 35007KT 9999 SCT018 BECMG 3019/3021 VRB04KT PROB40 3021/0105 14004KT BKN015 BECMG 0106/0108 30012KT FEW030 BECMG 0115/0117 36008KT SCT015 TX30/0110Z TN25/0103Z